createdAt,value
2023-01-06T00:01:30.436Z,0.90
2023-01-06T00:06:29.591Z,0.80
2023-01-06T00:11:27.296Z,0.80
2023-01-06T00:16:24.899Z,0.80
2023-01-06T00:21:22.207Z,0.60
2023-01-06T00:26:19.618Z,0.70
2023-01-06T00:31:18.342Z,0.60
2023-01-06T00:36:18.761Z,0.90
2023-01-06T00:41:34.681Z,1.00
2023-01-06T00:46:34.191Z,1.20
2023-01-06T00:51:32.464Z,1.30
2023-01-06T00:56:30.297Z,1.10
2023-01-06T01:01:27.710Z,1.40
2023-01-06T01:06:25.280Z,1.30
2023-01-06T01:11:42.113Z,1.30
2023-01-06T01:16:40.251Z,1.20
2023-01-06T01:21:38.124Z,1.30
2023-01-06T01:26:35.379Z,1.30
2023-01-06T01:31:33.203Z,1.10
2023-01-06T01:36:30.790Z,1.10
2023-01-06T01:41:29.300Z,1.10
2023-01-06T01:46:35.321Z,0.80
2023-01-06T01:51:38.328Z,0.80
2023-01-06T01:56:37.783Z,1.00
2023-01-06T02:01:38.223Z,0.90
2023-01-06T02:06:35.987Z,0.70
2023-01-06T02:11:35.726Z,0.60
2023-01-06T02:16:51.465Z,0.60
2023-01-06T02:21:57.732Z,0.50
2023-01-06T02:27:26.438Z,0.30
2023-01-06T02:32:37.338Z,0.30
2023-01-06T02:37:40.182Z,0.30
2023-01-06T02:43:06.144Z,0.30
2023-01-06T02:48:14.305Z,0.30
2023-01-06T02:53:35.807Z,0.10
2023-01-06T02:58:53.633Z,0.00
2023-01-06T03:03:53.596Z,0.10
2023-01-06T03:08:53.880Z,0.10
2023-01-06T03:13:59.443Z,0.40
2023-01-06T03:18:57.969Z,0.10
2023-01-06T03:23:55.401Z,0.10
2023-01-06T03:28:53.021Z,0.10
2023-01-06T03:34:02.002Z,0.20
2023-01-06T03:39:12.234Z,0.30
2023-01-06T03:44:18.923Z,0.20
2023-01-06T03:49:39.232Z,0.00
2023-01-06T03:54:55.143Z,0.00
2023-01-06T04:00:08.683Z,0.10
2023-01-06T04:05:13.995Z,0.10
2023-01-06T04:10:13.061Z,0.10
2023-01-06T04:15:22.304Z,0.00
2023-01-06T04:20:25.620Z,-0.10
2023-01-06T04:25:23.483Z,-0.30
2023-01-06T04:30:20.818Z,-0.20
2023-01-06T04:35:18.903Z,-0.10
2023-01-06T04:40:18.171Z,0.10
2023-01-06T04:45:18.733Z,0.10
2023-01-06T04:50:16.345Z,0.00
2023-01-06T04:55:13.929Z,-0.20
2023-01-06T05:00:12.739Z,-0.20
2023-01-06T05:05:10.996Z,-0.40
2023-01-06T05:10:10.903Z,-0.50
2023-01-06T05:15:11.828Z,-0.50
2023-01-06T05:20:10.044Z,-0.40
2023-01-06T05:25:10.545Z,-0.50
2023-01-06T05:30:08.503Z,-0.40
2023-01-06T05:35:06.227Z,-0.20
2023-01-06T05:40:03.915Z,-0.20
2023-01-06T05:45:01.437Z,-0.40
2023-01-06T05:49:58.771Z,-0.60
2023-01-06T05:54:55.969Z,-0.50
2023-01-06T05:59:53.356Z,-0.30
2023-01-06T06:04:51.447Z,-0.30
2023-01-06T06:09:50.394Z,-0.30
2023-01-06T06:14:47.588Z,-0.40
2023-01-06T06:19:45.137Z,-0.40
2023-01-06T06:24:42.404Z,-0.30
2023-01-06T06:29:39.731Z,-0.40
2023-01-06T06:34:37.452Z,-0.70
2023-01-06T06:39:34.932Z,-0.80
2023-01-06T06:44:32.340Z,-0.50
2023-01-06T06:49:29.781Z,-0.50
2023-01-06T06:54:30.137Z,-0.50
2023-01-06T06:59:27.841Z,-0.30
2023-01-06T07:04:25.244Z,-0.30
2023-01-06T07:09:22.524Z,-0.40
2023-01-06T07:14:19.795Z,-0.50
2023-01-06T07:19:17.238Z,-0.50
2023-01-06T07:24:14.673Z,-0.10
2023-01-06T07:29:12.257Z,0.40
2023-01-06T07:34:09.485Z,0.60
2023-01-06T07:39:06.869Z,0.70
2023-01-06T07:44:04.257Z,0.90
2023-01-06T07:49:04.597Z,0.90
2023-01-06T07:54:02.312Z,1.00
2023-01-06T07:58:59.668Z,0.90
2023-01-06T08:03:57.021Z,1.10
2023-01-06T08:08:54.853Z,1.20
2023-01-06T08:13:52.058Z,1.50
2023-01-06T08:18:49.667Z,1.80
2023-01-06T08:23:47.299Z,2.20
2023-01-06T08:28:45.931Z,3.20
2023-01-06T08:33:43.779Z,5.20
2023-01-06T08:38:41.128Z,6.40
2023-01-06T08:43:45.523Z,6.10
2023-01-06T08:48:46.446Z,6.10
2023-01-06T08:53:44.479Z,6.80
2023-01-06T08:58:42.596Z,7.50
2023-01-06T09:03:39.972Z,7.30
2023-01-06T09:08:38.024Z,7.90
2023-01-06T09:13:36.465Z,7.70
2023-01-06T09:18:33.786Z,7.80
2023-01-06T09:23:32.295Z,7.50
2023-01-06T09:28:32.622Z,7.90
2023-01-06T09:33:30.614Z,8.20
2023-01-06T09:38:28.386Z,8.90
2023-01-06T09:43:43.534Z,9.30
2023-01-06T09:49:18.636Z,9.40
2023-01-06T09:54:23.990Z,9.50
2023-01-06T09:59:45.840Z,9.80
2023-01-06T10:04:43.118Z,10.40
2023-01-06T10:09:49.488Z,10.30
2023-01-06T10:14:55.922Z,10.10
2023-01-06T10:19:56.005Z,10.40
2023-01-06T10:25:23.068Z,10.30
2023-01-06T10:30:40.275Z,10.50
2023-01-06T10:35:37.956Z,10.40
2023-01-06T10:40:41.838Z,9.10
2023-01-06T10:45:44.513Z,8.00
2023-01-06T10:50:42.082Z,7.40
2023-01-06T10:55:46.667Z,6.60
2023-01-06T11:01:03.862Z,6.10
2023-01-06T11:06:09.250Z,6.10
2023-01-06T11:11:33.637Z,6.10
2023-01-06T11:16:33.320Z,6.10
2023-01-06T11:21:43.666Z,6.00
2023-01-06T11:27:17.260Z,6.20
2023-01-06T11:32:20.368Z,6.30
2023-01-06T11:37:35.106Z,6.10
2023-01-06T11:42:32.557Z,6.20
2023-01-06T11:47:30.585Z,6.20
2023-01-06T11:52:31.489Z,6.30
2023-01-06T11:57:56.879Z,6.30
2023-01-06T12:03:22.895Z,6.30
2023-01-06T12:08:24.845Z,6.30
2023-01-06T12:13:22.527Z,6.40
2023-01-06T12:18:27.659Z,6.30
2023-01-06T12:23:29.278Z,6.30
2023-01-06T12:28:47.903Z,6.40
2023-01-06T12:33:57.290Z,6.50
2023-01-06T12:38:57.471Z,6.40
2023-01-06T12:44:36.152Z,6.50
2023-01-06T12:49:39.065Z,6.50
2023-01-06T12:54:39.450Z,6.50
2023-01-06T12:59:46.970Z,6.60
2023-01-06T13:04:56.406Z,6.60
2023-01-06T13:10:05.683Z,6.60
2023-01-06T13:15:31.620Z,6.70
2023-01-06T13:20:31.099Z,6.60
2023-01-06T13:25:43.467Z,6.50
2023-01-06T13:31:16.090Z,6.50
2023-01-06T13:36:22.894Z,6.50
2023-01-06T13:41:23.770Z,6.50
2023-01-06T13:46:30.232Z,6.50
2023-01-06T13:51:33.309Z,6.50
2023-01-06T13:56:32.612Z,6.40
2023-01-06T14:01:30.159Z,6.40
2023-01-06T14:06:27.674Z,6.30
2023-01-06T14:11:40.596Z,6.20
2023-01-06T14:16:47.640Z,6.10
2023-01-06T14:21:46.624Z,6.10
2023-01-06T14:27:01.459Z,5.90
2023-01-06T14:31:58.994Z,5.80
2023-01-06T14:36:58.801Z,5.70
2023-01-06T14:42:15.261Z,5.60
2023-01-06T14:47:46.336Z,5.50
2023-01-06T14:52:50.687Z,5.20
2023-01-06T14:57:51.139Z,4.90
2023-01-06T15:02:52.111Z,4.60
2023-01-06T15:07:57.348Z,4.40
2023-01-06T15:12:57.074Z,4.20
2023-01-06T15:17:56.853Z,3.90
2023-01-06T15:22:54.442Z,3.70
2023-01-06T15:27:57.374Z,3.50
2023-01-06T15:32:56.090Z,3.40
2023-01-06T15:38:20.486Z,3.20
2023-01-06T15:43:18.927Z,3.10
2023-01-06T15:48:21.360Z,3.00
2023-01-06T15:53:32.285Z,2.80
2023-01-06T15:58:39.973Z,2.70
2023-01-06T16:03:39.757Z,2.60
2023-01-06T16:08:37.720Z,2.40
2023-01-06T16:13:34.991Z,2.40
2023-01-06T16:18:37.594Z,2.40
2023-01-06T16:23:36.497Z,2.20
2023-01-06T16:28:34.382Z,2.10
2023-01-06T16:33:54.979Z,2.00
2023-01-06T16:38:52.629Z,1.90
2023-01-06T16:43:50.207Z,1.80
2023-01-06T16:48:48.013Z,1.60
2023-01-06T16:53:45.747Z,1.60
2023-01-06T16:58:43.689Z,1.60
2023-01-06T17:03:41.685Z,1.80
2023-01-06T17:08:39.620Z,1.80
2023-01-06T17:13:36.970Z,1.90
2023-01-06T17:18:34.755Z,2.00
2023-01-06T17:23:49.447Z,2.20
2023-01-06T17:28:48.708Z,2.30
2023-01-06T17:33:47.180Z,2.40
2023-01-06T17:38:49.350Z,2.50
2023-01-06T17:43:49.722Z,2.50
2023-01-06T17:48:50.647Z,2.50
2023-01-06T17:54:06.793Z,2.50
2023-01-06T17:59:17.727Z,2.40
2023-01-06T18:04:16.350Z,2.50
2023-01-06T18:09:23.703Z,2.70
2023-01-06T18:14:39.168Z,2.70
2023-01-06T18:19:37.726Z,2.60
2023-01-06T18:24:39.563Z,2.50
2023-01-06T18:29:39.216Z,2.50
2023-01-06T18:34:41.043Z,2.60
2023-01-06T18:39:46.331Z,2.50
2023-01-06T18:44:43.829Z,2.30
2023-01-06T18:49:42.289Z,2.30
2023-01-06T18:54:39.594Z,2.20
2023-01-06T18:59:37.207Z,2.10
2023-01-06T19:04:38.230Z,1.90
2023-01-06T19:09:42.106Z,1.60
2023-01-06T19:14:42.395Z,1.50
2023-01-06T19:19:40.654Z,1.40
2023-01-06T19:24:58.546Z,1.30
2023-01-06T19:30:01.597Z,1.20
2023-01-06T19:34:59.099Z,1.30
2023-01-06T19:39:58.181Z,1.30
2023-01-06T19:45:09.217Z,1.30
2023-01-06T19:50:25.677Z,1.40
2023-01-06T19:55:29.967Z,1.40
2023-01-06T20:00:31.580Z,1.60
2023-01-06T20:05:29.866Z,1.50
2023-01-06T20:10:27.406Z,1.40
2023-01-06T20:15:24.891Z,1.30
2023-01-06T20:20:22.643Z,1.40
2023-01-06T20:25:20.060Z,1.30
2023-01-06T20:30:17.600Z,1.20
2023-01-06T20:35:17.890Z,1.00
2023-01-06T20:40:16.017Z,1.00
2023-01-06T20:45:20.450Z,1.20
2023-01-06T20:50:17.724Z,1.30
2023-01-06T20:55:15.655Z,1.30
2023-01-06T21:00:14.027Z,1.30
2023-01-06T21:05:18.690Z,1.10
2023-01-06T21:10:16.248Z,0.90
2023-01-06T21:15:16.781Z,0.70
2023-01-06T21:20:14.098Z,0.70
2023-01-06T21:25:12.125Z,0.70
2023-01-06T21:30:10.031Z,0.60
2023-01-06T21:35:07.516Z,0.50
2023-01-06T21:40:11.483Z,0.50
2023-01-06T21:45:10.360Z,0.80
2023-01-06T21:50:09.737Z,1.00
2023-01-06T21:55:07.475Z,0.80
2023-01-06T22:00:06.567Z,0.80
2023-01-06T22:05:04.319Z,0.90
2023-01-06T22:10:05.153Z,1.10
2023-01-06T22:15:04.902Z,1.00
2023-01-06T22:20:02.664Z,1.00
2023-01-06T22:25:02.107Z,1.20
2023-01-06T22:29:59.580Z,1.10
2023-01-06T22:34:56.852Z,1.00
2023-01-06T22:39:54.338Z,0.80
2023-01-06T22:44:51.711Z,0.80
2023-01-06T22:49:48.970Z,0.90
2023-01-06T22:54:46.165Z,0.80
2023-01-06T22:59:43.490Z,0.60
2023-01-06T23:04:40.819Z,0.60
2023-01-06T23:09:39.011Z,0.40
2023-01-06T23:14:36.876Z,0.10
2023-01-06T23:19:34.508Z,0.10
2023-01-06T23:24:32.515Z,0.10
2023-01-06T23:29:29.923Z,0.10
2023-01-06T23:34:29.367Z,0.20
2023-01-06T23:39:27.099Z,0.20
2023-01-06T23:44:30.469Z,0.00
2023-01-06T23:49:27.819Z,-0.20
2023-01-06T23:54:25.460Z,-0.10
2023-01-06T23:59:23.053Z,0.00
